createdAt,value
2019-04-06T00:00:01.159Z,24.77
2019-04-06T00:02:05.294Z,33.10
2019-04-06T00:04:08.246Z,23.77
2019-04-06T00:06:11.263Z,21.40
2019-04-06T00:08:14.928Z,20.17
2019-04-06T00:10:18.586Z,21.50
2019-04-06T00:12:22.333Z,18.37
2019-04-06T00:14:25.344Z,20.37
2019-04-06T00:16:29.002Z,24.23
2019-04-06T00:18:33.568Z,22.83
2019-04-06T00:20:37.260Z,29.70
2019-04-06T00:22:40.107Z,17.60
2019-04-06T00:24:43.090Z,25.17
2019-04-06T00:26:45.998Z,18.40
2019-04-06T00:28:49.671Z,21.07
2019-04-06T00:31:11.220Z,28.63
2019-04-06T00:33:14.876Z,25.40
2019-04-06T00:35:17.819Z,22.50
2019-04-06T00:37:21.178Z,22.80
2019-04-06T00:39:24.831Z,18.53
2019-04-06T00:41:27.742Z,25.03
2019-04-06T00:43:30.827Z,20.20
2019-04-06T00:45:33.818Z,23.50
2019-04-06T00:47:37.515Z,22.30
2019-04-06T00:49:41.349Z,20.70
2019-04-06T00:51:44.983Z,20.27
2019-04-06T00:53:48.323Z,23.27
2019-04-06T00:55:55.953Z,23.80
2019-04-06T00:57:56.389Z,22.73
2019-04-06T00:59:59.313Z,17.83
2019-04-06T01:02:02.985Z,20.33
2019-04-06T01:04:06.374Z,21.17
2019-04-06T01:06:09.275Z,27.37
2019-04-06T01:08:12.253Z,20.67
2019-04-06T01:10:15.174Z,23.03
2019-04-06T01:12:18.126Z,20.63
2019-04-06T01:14:22.555Z,18.67
2019-04-06T01:16:25.494Z,24.40
2019-04-06T01:18:28.399Z,23.40
2019-04-06T01:20:31.482Z,18.90
2019-04-06T01:22:34.366Z,25.77
2019-04-06T01:24:37.357Z,27.20
2019-04-06T01:26:40.341Z,20.40
2019-04-06T01:28:43.211Z,24.30
2019-04-06T01:30:46.184Z,20.60
2019-04-06T01:32:49.795Z,21.57
2019-04-06T01:34:52.897Z,27.23
2019-04-06T01:36:55.669Z,24.37
2019-04-06T01:38:59.353Z,22.70
2019-04-06T01:41:02.239Z,19.83
2019-04-06T01:43:05.113Z,27.90
2019-04-06T01:45:08.423Z,23.98
2019-04-06T01:47:12.075Z,26.00
2019-04-06T01:49:15.068Z,20.87
2019-04-06T01:51:18.039Z,22.17
2019-04-06T01:53:20.964Z,25.15
2019-04-06T01:55:23.891Z,25.83
2019-04-06T01:57:27.239Z,24.20
2019-04-06T01:59:30.222Z,22.13
2019-04-06T02:01:34.609Z,21.40
2019-04-06T02:03:37.650Z,25.17
2019-04-06T02:05:40.598Z,25.15
2019-04-06T02:07:43.471Z,22.70
2019-04-06T02:09:46.462Z,19.25
2019-04-06T02:11:49.438Z,26.12
2019-04-06T02:13:52.330Z,31.33
2019-04-06T02:15:56.007Z,27.80
2019-04-06T02:17:59.023Z,26.05
2019-04-06T02:20:01.991Z,23.42
2019-04-06T02:22:05.832Z,26.77
2019-04-06T02:24:09.465Z,19.08
2019-04-06T02:26:12.372Z,18.35
2019-04-06T02:28:16.109Z,25.70
2019-04-06T02:30:21.527Z,20.70
2019-04-06T02:32:40.152Z,24.70
2019-04-06T02:35:00.456Z,23.70
2019-04-06T02:37:08.943Z,24.87
2019-04-06T02:39:16.440Z,27.07
2019-04-06T02:41:19.985Z,26.55
2019-04-06T02:43:23.582Z,32.47
2019-04-06T02:45:26.457Z,23.23
2019-04-06T02:47:30.133Z,22.40
2019-04-06T02:49:34.259Z,24.77
2019-04-06T02:51:37.951Z,23.27
2019-04-06T02:53:41.025Z,29.47
2019-04-06T02:55:44.951Z,27.02
2019-04-06T02:57:48.600Z,24.40
2019-04-06T02:59:53.334Z,24.48
2019-04-06T03:01:56.183Z,22.05
2019-04-06T03:03:59.834Z,20.67
2019-04-06T03:06:02.936Z,21.70
2019-04-06T03:08:07.469Z,20.37
2019-04-06T03:10:11.179Z,29.05
2019-04-06T03:12:14.224Z,21.97
2019-04-06T03:14:17.203Z,22.23
2019-04-06T03:16:20.090Z,25.90
2019-04-06T03:18:23.071Z,22.27
2019-04-06T03:20:26.012Z,23.30
2019-04-06T03:22:28.907Z,24.87
2019-04-06T03:24:32.431Z,22.93
2019-04-06T03:26:36.919Z,21.10
2019-04-06T03:28:40.404Z,20.55
2019-04-06T03:30:43.490Z,20.27
2019-04-06T03:32:46.646Z,29.33
2019-04-06T03:34:49.260Z,21.42
2019-04-06T03:36:52.186Z,23.38
2019-04-06T03:38:56.340Z,20.27
2019-04-06T03:40:59.263Z,21.85
2019-04-06T03:43:03.779Z,19.62
2019-04-06T03:45:07.365Z,21.37
2019-04-06T03:47:10.239Z,24.67
2019-04-06T03:49:13.265Z,25.00
2019-04-06T03:51:16.908Z,22.45
2019-04-06T03:53:19.789Z,19.12
2019-04-06T03:55:22.802Z,18.77
2019-04-06T03:57:25.803Z,24.08
2019-04-06T03:59:30.100Z,20.42
2019-04-06T04:01:33.199Z,18.80
2019-04-06T04:03:36.985Z,13.90
2019-04-06T04:05:39.802Z,22.48
2019-04-06T04:07:43.485Z,24.85
2019-04-06T04:09:47.139Z,17.33
2019-04-06T04:11:50.043Z,19.17
2019-04-06T04:13:53.167Z,18.75
2019-04-06T04:15:57.546Z,22.17
2019-04-06T04:17:59.513Z,26.33
2019-04-06T04:20:02.433Z,22.52
2019-04-06T04:22:06.096Z,22.07
2019-04-06T04:24:09.759Z,30.92
2019-04-06T04:26:12.673Z,22.65
2019-04-06T04:28:15.904Z,18.42
2019-04-06T04:30:31.610Z,21.85
2019-04-06T04:32:22.678Z,18.62
2019-04-06T04:34:25.639Z,28.77
2019-04-06T04:36:28.979Z,20.63
2019-04-06T04:38:32.614Z,24.50
2019-04-06T04:40:36.943Z,21.60
2019-04-06T04:42:39.815Z,20.13
2019-04-06T04:44:42.765Z,21.77
2019-04-06T04:46:46.768Z,23.33
2019-04-06T04:48:49.683Z,18.85
2019-04-06T04:50:54.096Z,20.42
2019-04-06T04:52:56.984Z,20.58
2019-04-06T04:55:01.435Z,16.05
2019-04-06T04:57:05.134Z,27.33
2019-04-06T04:59:08.797Z,20.00
2019-04-06T05:01:13.256Z,23.70
2019-04-06T05:03:16.138Z,19.48
2019-04-06T05:05:19.107Z,18.90
2019-04-06T05:07:21.992Z,18.87
2019-04-06T05:09:25.039Z,22.13
2019-04-06T05:11:28.239Z,25.95
2019-04-06T05:13:32.366Z,20.35
2019-04-06T05:15:45.720Z,18.52
2019-04-06T05:17:48.684Z,19.70
2019-04-06T05:19:52.466Z,20.20
2019-04-06T05:21:56.165Z,21.45
2019-04-06T05:23:59.032Z,23.05
2019-04-06T05:26:02.089Z,22.90
2019-04-06T05:28:05.688Z,20.45
2019-04-06T05:30:08.615Z,23.60
2019-04-06T05:32:11.555Z,24.08
2019-04-06T05:34:15.971Z,23.23
2019-04-06T05:36:18.923Z,27.95
2019-04-06T05:38:22.579Z,21.08
2019-04-06T05:40:25.695Z,26.67
2019-04-06T05:42:29.341Z,21.55
2019-04-06T05:44:32.230Z,23.12
2019-04-06T05:46:36.631Z,24.23
2019-04-06T05:48:40.345Z,22.70
2019-04-06T05:50:43.246Z,23.45
2019-04-06T05:52:46.134Z,20.70
2019-04-06T05:54:49.012Z,24.07
2019-04-06T05:56:51.911Z,23.73
2019-04-06T05:58:55.437Z,21.87
2019-04-06T06:00:58.257Z,19.70
2019-04-06T06:03:01.256Z,33.25
2019-04-06T06:05:04.128Z,25.98
2019-04-06T06:07:07.930Z,22.00
2019-04-06T06:09:10.827Z,29.73
2019-04-06T06:11:14.474Z,21.50
2019-04-06T06:13:17.391Z,27.90
2019-04-06T06:15:21.083Z,21.80
2019-04-06T06:17:24.101Z,24.60
2019-04-06T06:19:27.771Z,25.00
2019-04-06T06:21:31.482Z,23.05
2019-04-06T06:23:35.152Z,24.73
2019-04-06T06:25:38.307Z,26.33
2019-04-06T06:27:41.818Z,27.80
2019-04-06T06:29:44.738Z,23.55
2019-04-06T06:31:48.402Z,24.08
2019-04-06T06:33:51.288Z,25.20
2019-04-06T06:35:54.388Z,30.05
2019-04-06T06:37:57.962Z,23.70
2019-04-06T06:40:01.687Z,27.67
2019-04-06T06:42:05.387Z,24.90
2019-04-06T06:44:08.382Z,31.92
2019-04-06T06:46:12.112Z,28.58
2019-04-06T06:48:15.297Z,20.87
2019-04-06T06:50:17.989Z,24.60
2019-04-06T06:52:20.915Z,31.33
2019-04-06T06:54:24.631Z,24.23
2019-04-06T06:56:27.632Z,30.17
2019-04-06T06:58:30.487Z,24.20
2019-04-06T07:00:34.297Z,20.42
2019-04-06T07:02:37.270Z,28.60
2019-04-06T07:04:40.525Z,27.37
2019-04-06T07:06:44.085Z,26.58
2019-04-06T07:08:47.075Z,27.80
2019-04-06T07:10:50.740Z,21.65
2019-04-06T07:12:53.727Z,27.30
2019-04-06T07:14:56.607Z,20.40
2019-04-06T07:17:00.363Z,23.35
2019-04-06T07:19:03.653Z,30.90
2019-04-06T07:21:06.614Z,22.93
2019-04-06T07:23:10.246Z,29.17
2019-04-06T07:25:13.267Z,24.23
2019-04-06T07:27:16.919Z,20.05
2019-04-06T07:29:19.889Z,23.42
2019-04-06T07:31:22.934Z,30.12
2019-04-06T07:33:26.636Z,32.03
2019-04-06T07:35:29.616Z,25.73
2019-04-06T07:37:32.599Z,27.07
2019-04-06T07:39:36.309Z,22.00
2019-04-06T07:41:39.175Z,28.20
2019-04-06T07:43:43.288Z,22.97
2019-04-06T07:45:46.947Z,30.60
2019-04-06T07:47:50.614Z,22.73
2019-04-06T07:49:54.535Z,23.57
2019-04-06T07:51:57.266Z,25.27
2019-04-06T07:54:00.398Z,36.53
2019-04-06T07:56:03.979Z,26.70
2019-04-06T07:58:08.465Z,28.70
2019-04-06T08:00:11.346Z,24.90
2019-04-06T08:02:14.223Z,28.80
2019-04-06T08:04:17.206Z,26.20
2019-04-06T08:06:20.196Z,29.57
2019-04-06T08:08:23.095Z,28.67
2019-04-06T08:10:26.011Z,21.05
2019-04-06T08:12:29.264Z,33.30
2019-04-06T08:14:32.921Z,30.87
2019-04-06T08:16:35.965Z,23.70
2019-04-06T08:18:38.891Z,30.50
2019-04-06T08:20:41.804Z,26.73
2019-04-06T08:22:44.792Z,25.80
2019-04-06T08:24:48.486Z,23.83
2019-04-06T08:26:52.408Z,20.20
2019-04-06T08:29:01.834Z,26.60
2019-04-06T08:30:59.167Z,22.97
2019-04-06T08:33:02.168Z,28.23
2019-04-06T08:35:05.824Z,21.73
2019-04-06T08:37:09.082Z,26.23
2019-04-06T08:39:12.531Z,21.07
2019-04-06T08:41:15.444Z,32.53
2019-04-06T08:43:19.319Z,24.47
2019-04-06T08:45:23.227Z,22.77
2019-04-06T08:47:26.922Z,27.43
2019-04-06T08:49:31.960Z,26.97
2019-04-06T08:51:34.908Z,19.03
2019-04-06T08:53:37.937Z,30.30
2019-04-06T08:55:41.007Z,25.03
2019-04-06T08:57:44.762Z,23.93
2019-04-06T08:59:47.616Z,23.80
2019-04-06T09:01:51.287Z,25.90
2019-04-06T09:03:54.181Z,27.83
2019-04-06T09:05:58.166Z,25.30
2019-04-06T09:08:01.343Z,31.83
2019-04-06T09:10:05.605Z,24.33
2019-04-06T09:12:09.758Z,24.33
2019-04-06T09:14:13.063Z,23.57
2019-04-06T09:16:16.065Z,25.77
2019-04-06T09:18:19.790Z,26.70
2019-04-06T09:20:23.579Z,24.53
2019-04-06T09:22:27.351Z,27.10
2019-04-06T09:24:30.139Z,23.17
2019-04-06T09:26:33.137Z,27.60
2019-04-06T09:28:38.083Z,25.87
2019-04-06T09:30:41.855Z,24.53
2019-04-06T09:32:44.794Z,38.03
2019-04-06T09:34:47.751Z,31.17
2019-04-06T09:36:51.727Z,32.17
2019-04-06T09:38:55.392Z,27.80
2019-04-06T09:40:58.450Z,26.70
2019-04-06T09:43:02.578Z,30.87
2019-04-06T09:45:26.912Z,32.00
2019-04-06T09:47:46.586Z,26.90
2019-04-06T09:49:55.078Z,32.70
2019-04-06T09:51:59.605Z,27.43
2019-04-06T09:54:06.410Z,31.17
2019-04-06T09:56:24.152Z,26.17
2019-04-06T09:58:31.386Z,28.70
2019-04-06T10:00:40.014Z,26.37
2019-04-06T10:02:58.756Z,28.47
2019-04-06T10:05:02.346Z,25.83
2019-04-06T10:07:13.053Z,27.47
2019-04-06T10:09:19.330Z,27.53
2019-04-06T10:11:33.578Z,29.00
2019-04-06T10:13:38.055Z,28.07
2019-04-06T10:15:47.171Z,26.57
2019-04-06T10:17:57.768Z,34.00
2019-04-06T10:20:02.356Z,26.47
2019-04-06T10:22:24.174Z,26.70
2019-04-06T10:24:33.578Z,24.30
2019-04-06T10:26:36.463Z,32.27
2019-04-06T10:28:45.163Z,26.80
2019-04-06T10:30:50.427Z,28.97
2019-04-06T10:32:56.953Z,27.00
2019-04-06T10:35:06.484Z,29.07
2019-04-06T10:37:10.951Z,31.20
2019-04-06T10:39:16.311Z,32.23
2019-04-06T10:41:24.371Z,29.77
2019-04-06T10:43:45.764Z,29.57
2019-04-06T10:46:00.191Z,29.50
2019-04-06T10:48:06.808Z,30.57
2019-04-06T10:50:16.204Z,32.65
2019-04-06T10:52:24.907Z,30.37
2019-04-06T10:54:34.101Z,31.30
2019-04-06T10:56:41.143Z,32.47
2019-04-06T10:58:45.737Z,30.37
2019-04-06T11:01:08.067Z,39.23
2019-04-06T11:03:15.319Z,32.87
2019-04-06T11:05:19.457Z,36.40
2019-04-06T11:07:35.922Z,31.03
2019-04-06T11:09:42.740Z,34.67
2019-04-06T11:11:50.538Z,29.43
2019-04-06T11:13:59.148Z,34.67
2019-04-06T11:16:21.959Z,27.33
2019-04-06T11:18:39.975Z,29.77
2019-04-06T11:20:51.778Z,37.03
2019-04-06T11:23:10.343Z,41.57
2019-04-06T11:25:24.673Z,36.67
2019-04-06T11:27:31.211Z,33.60
2019-04-06T11:29:39.997Z,34.80
2019-04-06T11:31:48.864Z,39.33
2019-04-06T11:34:08.016Z,29.73
2019-04-06T11:36:15.647Z,41.17
2019-04-06T11:38:28.975Z,34.43
2019-04-06T11:40:33.781Z,34.30
2019-04-06T11:42:53.379Z,35.27
2019-04-06T11:45:07.075Z,39.00
2019-04-06T11:47:12.868Z,28.27
2019-04-06T11:49:20.795Z,34.50
2019-04-06T11:51:29.545Z,36.77
2019-04-06T11:53:33.172Z,33.60
2019-04-06T11:55:44.438Z,29.03
2019-04-06T11:57:58.550Z,33.10
2019-04-06T12:00:26.045Z,31.63
2019-04-06T12:02:27.167Z,27.07
2019-04-06T12:04:49.978Z,28.97
2019-04-06T12:07:07.718Z,29.10
2019-04-06T12:09:29.250Z,31.40
2019-04-06T12:11:32.881Z,29.10
2019-04-06T12:13:38.340Z,27.33
2019-04-06T12:15:41.222Z,33.07
2019-04-06T12:17:50.983Z,28.30
2019-04-06T12:20:10.633Z,24.17
2019-04-06T12:22:19.628Z,31.43
2019-04-06T12:24:28.399Z,35.43
2019-04-06T12:26:37.663Z,21.43
2019-04-06T12:28:41.408Z,26.10
2019-04-06T12:31:02.041Z,29.07
2019-04-06T12:33:08.406Z,22.60
2019-04-06T12:35:11.919Z,20.67
2019-04-06T12:37:20.686Z,20.17
2019-04-06T12:39:23.858Z,17.53
2019-04-06T12:41:29.072Z,19.00
2019-04-06T12:43:37.642Z,21.07
2019-04-06T12:45:45.051Z,16.73
2019-04-06T12:48:06.549Z,22.83
2019-04-06T12:50:16.166Z,16.17
2019-04-06T12:52:21.247Z,21.17
2019-04-06T12:54:41.895Z,22.50
2019-04-06T12:56:47.731Z,23.13
2019-04-06T12:59:07.402Z,28.03
2019-04-06T13:01:22.350Z,22.37
2019-04-06T13:03:29.875Z,20.40
2019-04-06T13:05:41.643Z,21.17
2019-04-06T13:08:02.328Z,25.27
2019-04-06T13:10:09.725Z,22.03
2019-04-06T13:12:16.307Z,16.63
2019-04-06T13:14:34.475Z,18.77
2019-04-06T13:16:42.610Z,18.83
2019-04-06T13:18:47.356Z,23.27
2019-04-06T13:20:55.840Z,18.02
2019-04-06T13:22:58.742Z,18.43
2019-04-06T13:25:01.937Z,18.87
2019-04-06T13:27:04.806Z,16.10
2019-04-06T13:29:25.708Z,19.33
2019-04-06T13:31:28.708Z,20.47
2019-04-06T13:33:36.159Z,19.70
2019-04-06T13:35:40.983Z,19.40
2019-04-06T13:37:46.630Z,19.23
2019-04-06T13:39:55.143Z,17.73
2019-04-06T13:41:58.743Z,17.53
2019-04-06T13:44:02.086Z,19.20
2019-04-06T13:46:12.214Z,16.50
2019-04-06T13:48:19.231Z,19.50
2019-04-06T13:50:38.639Z,18.07
2019-04-06T13:53:00.507Z,16.87
2019-04-06T13:55:07.513Z,16.20
2019-04-06T13:57:11.581Z,18.20
2019-04-06T13:59:29.959Z,19.30
2019-04-06T14:01:34.350Z,17.00
2019-04-06T14:03:49.273Z,18.23
2019-04-06T14:05:56.019Z,21.70
2019-04-06T14:08:04.179Z,23.07
2019-04-06T14:10:10.710Z,22.30
2019-04-06T14:12:19.139Z,21.23
2019-04-06T14:14:29.181Z,20.23
2019-04-06T14:16:44.554Z,17.53
2019-04-06T14:18:52.385Z,18.07
2019-04-06T14:20:59.143Z,19.43
2019-04-06T14:23:02.027Z,25.43
2019-04-06T14:25:06.886Z,19.80
2019-04-06T14:27:29.090Z,26.67
2019-04-06T14:29:37.583Z,18.40
2019-04-06T14:31:43.087Z,19.57
2019-04-06T14:33:51.615Z,19.87
2019-04-06T14:36:00.170Z,18.60
2019-04-06T14:38:04.879Z,18.87
2019-04-06T14:40:07.756Z,16.73
2019-04-06T14:42:25.524Z,23.10
2019-04-06T14:44:30.939Z,20.30
2019-04-06T14:46:40.884Z,19.87
2019-04-06T14:49:12.096Z,18.33
2019-04-06T14:51:21.602Z,16.73
2019-04-06T14:53:25.798Z,19.57
2019-04-06T14:55:32.109Z,19.00
2019-04-06T14:57:40.759Z,20.40
2019-04-06T14:59:49.999Z,22.30
2019-04-06T15:01:59.005Z,16.40
2019-04-06T15:03:59.467Z,17.80
2019-04-06T15:06:18.927Z,21.00
2019-04-06T15:08:22.292Z,17.47
2019-04-06T15:10:27.555Z,19.77
2019-04-06T15:12:36.106Z,29.80
2019-04-06T15:14:39.012Z,22.97
2019-04-06T15:16:42.351Z,20.00
2019-04-06T15:18:47.590Z,18.40
2019-04-06T15:20:51.268Z,18.33
2019-04-06T15:23:00.068Z,18.30
2019-04-06T15:25:03.571Z,23.03
2019-04-06T15:27:08.385Z,18.43
2019-04-06T15:29:15.130Z,23.70
2019-04-06T15:31:20.124Z,22.90
2019-04-06T15:33:28.150Z,20.40
2019-04-06T15:35:37.351Z,19.67
2019-04-06T15:37:57.019Z,15.27
2019-04-06T15:40:05.491Z,20.13
2019-04-06T15:42:09.438Z,17.53
2019-04-06T15:44:31.746Z,18.10
2019-04-06T15:46:39.083Z,17.00
2019-04-06T15:48:59.571Z,16.83
2019-04-06T15:51:06.421Z,17.43
2019-04-06T15:53:21.051Z,19.70
2019-04-06T15:55:27.643Z,19.03
2019-04-06T15:57:31.006Z,18.00
2019-04-06T15:59:34.291Z,17.20
2019-04-06T16:01:42.982Z,19.17
2019-04-06T16:03:50.500Z,16.77
2019-04-06T16:05:58.924Z,20.37
2019-04-06T16:08:20.679Z,17.23
2019-04-06T16:10:44.372Z,16.30
2019-04-06T16:12:50.082Z,22.07
2019-04-06T16:14:56.817Z,22.50
2019-04-06T16:17:04.167Z,16.90
2019-04-06T16:19:08.471Z,19.33
2019-04-06T16:21:22.118Z,16.07
2019-04-06T16:23:36.455Z,18.20
2019-04-06T16:25:46.385Z,17.20
2019-04-06T16:28:05.031Z,12.93
2019-04-06T16:30:13.677Z,14.40
2019-04-06T16:32:31.034Z,15.63
2019-04-06T16:34:39.773Z,17.20
2019-04-06T16:37:02.488Z,23.98
2019-04-06T16:39:08.187Z,14.03
2019-04-06T16:41:18.673Z,18.90
2019-04-06T16:43:28.062Z,12.90
2019-04-06T16:45:36.777Z,12.10
2019-04-06T16:47:45.146Z,14.13
2019-04-06T16:49:48.835Z,13.90
2019-04-06T16:51:52.958Z,13.63
2019-04-06T16:53:59.588Z,12.13
2019-04-06T16:56:16.075Z,15.37
2019-04-06T16:58:36.790Z,24.00
2019-04-06T17:00:45.316Z,14.43
2019-04-06T17:02:59.894Z,13.10
2019-04-06T17:05:08.523Z,13.00
2019-04-06T17:07:15.142Z,12.93
2019-04-06T17:09:24.040Z,17.77
2019-04-06T17:11:33.693Z,13.70
2019-04-06T17:13:41.991Z,13.53
2019-04-06T17:15:51.178Z,11.10
2019-04-06T17:18:05.834Z,12.10
2019-04-06T17:20:14.200Z,11.67
2019-04-06T17:22:22.806Z,12.77
2019-04-06T17:24:26.778Z,15.60
2019-04-06T17:26:32.007Z,14.40
2019-04-06T17:28:40.972Z,14.43
2019-04-06T17:30:49.976Z,10.70
2019-04-06T17:32:53.301Z,11.23
2019-04-06T17:34:59.048Z,16.90
2019-04-06T17:37:15.455Z,12.07
2019-04-06T17:39:18.650Z,16.20
2019-04-06T17:41:22.727Z,15.53
2019-04-06T17:43:31.127Z,12.07
2019-04-06T17:45:40.040Z,11.50
2019-04-06T17:47:48.671Z,13.30
2019-04-06T17:49:58.661Z,14.00
2019-04-06T17:52:18.437Z,14.70
2019-04-06T17:54:25.710Z,11.83
2019-04-06T17:56:46.627Z,10.67
2019-04-06T17:58:56.414Z,10.17
2019-04-06T18:00:59.839Z,12.70
2019-04-06T18:03:18.400Z,12.70
2019-04-06T18:05:24.897Z,13.70
2019-04-06T18:07:30.372Z,13.77
2019-04-06T18:09:36.328Z,12.47
2019-04-06T18:11:42.038Z,14.83
2019-04-06T18:13:49.832Z,12.30
2019-04-06T18:15:53.863Z,10.33
2019-04-06T18:17:57.313Z,10.40
2019-04-06T18:20:01.081Z,12.73
2019-04-06T18:22:05.488Z,12.43
2019-04-06T18:24:08.412Z,11.53
2019-04-06T18:26:12.562Z,8.90
2019-04-06T18:28:16.340Z,10.33
2019-04-06T18:30:19.307Z,11.07
2019-04-06T18:32:28.574Z,13.33
2019-04-06T18:34:31.490Z,8.63
2019-04-06T18:36:36.883Z,15.40
2019-04-06T18:38:47.407Z,12.00
2019-04-06T18:40:50.383Z,13.30
2019-04-06T18:42:53.254Z,11.23
2019-04-06T18:44:56.377Z,11.77
2019-04-06T18:46:59.050Z,9.70
2019-04-06T18:49:03.199Z,13.33
2019-04-06T18:51:06.504Z,12.83
2019-04-06T18:53:09.855Z,10.87
2019-04-06T18:55:12.970Z,12.73
2019-04-06T18:57:16.596Z,12.67
2019-04-06T18:59:19.505Z,16.20
2019-04-06T19:01:22.445Z,15.53
2019-04-06T19:03:25.464Z,16.20
2019-04-06T19:05:28.626Z,16.97
2019-04-06T19:07:31.593Z,16.53
2019-04-06T19:09:35.111Z,14.27
2019-04-06T19:11:38.221Z,20.97
2019-04-06T19:13:42.136Z,14.97
2019-04-06T19:15:46.848Z,16.77
2019-04-06T19:17:51.173Z,12.57
2019-04-06T19:19:54.079Z,12.30
2019-04-06T19:21:57.837Z,12.50
2019-04-06T19:24:00.856Z,12.00
2019-04-06T19:26:03.759Z,17.57
2019-04-06T19:28:07.674Z,14.93
2019-04-06T19:30:10.255Z,12.77
2019-04-06T19:32:13.379Z,16.03
2019-04-06T19:34:17.029Z,10.23
2019-04-06T19:36:20.445Z,15.53
2019-04-06T19:38:23.473Z,11.40
2019-04-06T19:40:27.283Z,12.23
2019-04-06T19:42:30.699Z,13.00
2019-04-06T19:44:34.040Z,14.57
2019-04-06T19:46:38.530Z,16.47
2019-04-06T19:48:41.395Z,16.47
2019-04-06T19:50:44.664Z,20.97
2019-04-06T19:52:47.588Z,14.07
2019-04-06T19:54:51.425Z,15.90
2019-04-06T19:56:55.191Z,18.13
2019-04-06T19:58:58.890Z,21.30
2019-04-06T20:01:03.137Z,19.60
2019-04-06T20:03:07.558Z,13.23
2019-04-06T20:05:12.576Z,19.67
2019-04-06T20:07:15.497Z,14.57
2019-04-06T20:09:18.653Z,16.03
2019-04-06T20:11:22.343Z,17.83
2019-04-06T20:13:28.154Z,19.40
2019-04-06T20:15:29.333Z,16.30
2019-04-06T20:17:32.298Z,13.87
2019-04-06T20:19:35.197Z,14.87
2019-04-06T20:21:38.589Z,14.77
2019-04-06T20:23:42.846Z,14.73
2019-04-06T20:25:46.265Z,14.57
2019-04-06T20:27:50.135Z,14.93
2019-04-06T20:29:53.588Z,19.30
2019-04-06T20:31:57.520Z,13.47
2019-04-06T20:34:00.891Z,18.57
2019-04-06T20:36:04.699Z,16.43
2019-04-06T20:38:07.383Z,16.77
2019-04-06T20:40:10.335Z,17.23
2019-04-06T20:42:13.542Z,23.57
2019-04-06T20:44:16.713Z,17.13
2019-04-06T20:46:20.656Z,21.33
2019-04-06T20:48:23.302Z,20.90
2019-04-06T20:50:27.133Z,15.30
2019-04-06T20:52:29.965Z,16.80
2019-04-06T20:54:32.956Z,15.10
2019-04-06T20:56:37.127Z,14.07
2019-04-06T20:58:40.195Z,15.50
2019-04-06T21:00:42.815Z,16.17
2019-04-06T21:02:45.893Z,16.20
2019-04-06T21:04:50.658Z,15.80
2019-04-06T21:06:53.302Z,14.70
2019-04-06T21:08:57.530Z,22.13
2019-04-06T21:11:00.286Z,17.00
2019-04-06T21:13:04.313Z,16.40
2019-04-06T21:15:16.876Z,18.10
2019-04-06T21:17:09.538Z,17.97
2019-04-06T21:19:12.479Z,20.43
2019-04-06T21:21:15.410Z,17.50
2019-04-06T21:23:19.007Z,17.30
2019-04-06T21:25:23.351Z,16.83
2019-04-06T21:27:26.103Z,15.43
2019-04-06T21:29:29.656Z,15.40
2019-04-06T21:31:33.199Z,16.50
2019-04-06T21:33:36.515Z,17.90
2019-04-06T21:35:40.941Z,15.60
2019-04-06T21:37:44.745Z,25.20
2019-04-06T21:39:48.444Z,16.03
2019-04-06T21:41:51.620Z,14.10
2019-04-06T21:43:55.603Z,17.83
2019-04-06T21:45:58.310Z,16.90
2019-04-06T21:48:01.723Z,15.87
2019-04-06T21:50:06.898Z,14.67
2019-04-06T21:52:10.192Z,13.13
2019-04-06T21:54:13.785Z,12.90
2019-04-06T21:56:16.865Z,16.13
2019-04-06T21:58:20.371Z,18.33
2019-04-06T22:00:25.309Z,17.83
2019-04-06T22:02:28.625Z,13.93
2019-04-06T22:04:32.695Z,16.13
2019-04-06T22:06:35.478Z,20.03
2019-04-06T22:08:39.516Z,17.47
2019-04-06T22:10:43.481Z,19.23
2019-04-06T22:12:45.792Z,15.43
2019-04-06T22:14:49.180Z,15.63
2019-04-06T22:16:52.817Z,13.63
2019-04-06T22:18:56.445Z,14.37
2019-04-06T22:20:59.593Z,18.80
2019-04-06T22:23:02.844Z,17.17
2019-04-06T22:25:06.143Z,15.93
2019-04-06T22:27:10.049Z,13.57
2019-04-06T22:29:12.935Z,16.60
2019-04-06T22:31:16.429Z,16.13
2019-04-06T22:33:20.781Z,17.83
2019-04-06T22:35:24.830Z,14.30
2019-04-06T22:37:27.815Z,21.40
2019-04-06T22:39:31.646Z,13.60
2019-04-06T22:41:34.531Z,15.00
2019-04-06T22:43:37.755Z,12.70
2019-04-06T22:45:40.711Z,11.30
2019-04-06T22:47:43.633Z,13.57
2019-04-06T22:49:46.768Z,19.67
2019-04-06T22:51:49.973Z,14.53
2019-04-06T22:53:53.802Z,11.70
2019-04-06T22:55:57.254Z,17.13
2019-04-06T22:58:00.468Z,12.47
2019-04-06T23:00:03.546Z,10.30
2019-04-06T23:02:07.671Z,16.37
2019-04-06T23:04:21.012Z,15.27
2019-04-06T23:06:24.556Z,14.50
2019-04-06T23:08:28.206Z,10.20
2019-04-06T23:10:31.722Z,13.23
2019-04-06T23:12:36.054Z,14.90
2019-04-06T23:14:40.007Z,16.40
2019-04-06T23:16:44.710Z,9.60
2019-04-06T23:18:47.220Z,12.35
2019-04-06T23:20:51.185Z,10.77
2019-04-06T23:22:53.799Z,11.17
2019-04-06T23:24:56.446Z,17.43
2019-04-06T23:26:59.152Z,12.80
2019-04-06T23:29:03.389Z,13.27
2019-04-06T23:31:06.182Z,14.63
2019-04-06T23:33:10.028Z,11.70
2019-04-06T23:35:13.983Z,13.20
2019-04-06T23:37:18.441Z,17.40
2019-04-06T23:39:20.691Z,19.07
2019-04-06T23:41:23.626Z,12.83
2019-04-06T23:43:26.784Z,14.33
2019-04-06T23:45:29.994Z,13.23
2019-04-06T23:47:35.105Z,15.27
2019-04-06T23:49:38.426Z,13.20
2019-04-06T23:51:41.498Z,10.43
2019-04-06T23:53:44.004Z,14.70
2019-04-06T23:55:47.951Z,20.53
2019-04-06T23:57:51.079Z,10.63
2019-04-06T23:59:55.467Z,12.27
